Schneifelwetter: Wetterstation Hallschlag, 537 m . NN
Wetterdaten: Samstag, 27.08.2011
Datum Zeit Temp. A. Feuchte A. Luftdruck Regen Wind Richtung Richtung Sonnenschein Helligkeit T Regen Taupunkt Windchill
27.08.2011 00:00 12,7 C 94 % 1008 hPa 0,0 l/m 19,3 km/h (3 Bft) W-SW45 250 0 min 0 lux 0 min 11,8 C 7,0 C
27.08.2011 00:15 12,7 C 94 % 1009 hPa 0,0 l/m 21,1 km/h (4 Bft) SW22.5 230 0 min 0 lux 0 min 11,8 C 6,5 C
27.08.2011 00:30 12,6 C 94 % 1009 hPa 0,0 l/m 25,8 km/h (4 Bft) S-SW45 210 0 min 0 lux 0 min 11,7 C 5,2 C
27.08.2011 00:45 12,4 C 94 % 1009 hPa 0,0 l/m 29,0 km/h (5 Bft) W-SW22.5 255 0 min 0 lux 0 min 11,5 C 4,2 C
27.08.2011 01:00 12,4 C 94 % 1009 hPa 0,0 l/m 19,1 km/h (3 Bft) W-SW22.5 250 0 min 0 lux 0 min 11,5 C 6,7 C
27.08.2011 01:15 12,2 C 94 % 1009 hPa 0,0 l/m 34,3 km/h (5 Bft) W-SW45 255 0 min 0 lux 0 min 11,3 C 3,0 C
27.08.2011 01:30 12,0 C 94 % 1009 hPa 1,5 l/m 13,5 km/h (3 Bft) SW45 230 0 min 0 lux 15 min 11,1 C 8,2 C
27.08.2011 01:45 12,0 C 95 % 1009 hPa 0,0 l/m 17,8 km/h (3 Bft) SW45 225 0 min 0 lux 0 min 11,2 C 6,6 C
27.08.2011 02:00 11,8 C 94 % 1009 hPa 0,0 l/m 17,2 km/h (3 Bft) SW45 215 0 min 0 lux 0 min 10,9 C 6,5 C
27.08.2011 02:15 11,7 C 94 % 1009 hPa 0,0 l/m 19,6 km/h (3 Bft) SW45 220 0 min 0 lux 0 min 10,8 C 5,6 C
27.08.2011 02:31 11,6 C 94 % 1009 hPa 0,0 l/m 20,8 km/h (4 Bft) SW22.5 220 0 min 0 lux 0 min 10,7 C 5,1 C
27.08.2011 02:46 11,4 C 94 % 1009 hPa 0,0 l/m 15,5 km/h (3 Bft) SW22.5 220 0 min 0 lux 0 min 10,5 C 6,6 C
27.08.2011 03:01 11,4 C 94 % 1009 hPa 0,0 l/m 24,2 km/h (4 Bft) S-SW45 210 0 min 0 lux 0 min 10,5 C 3,9 C
27.08.2011 03:16 11,3 C 94 % 1009 hPa 0,0 l/m 28,6 km/h (4 Bft) SW67.5 225 0 min 0 lux 0 min 10,4 C 2,8 C
27.08.2011 03:31 11,2 C 94 % 1009 hPa 0,0 l/m 22,1 km/h (4 Bft) SW67.5 225 0 min 0 lux 0 min 10,3 C 4,2 C
27.08.2011 03:46 11,2 C 95 % 1009 hPa 0,0 l/m 35,3 km/h (5 Bft) W-SW45 250 0 min 0 lux 0 min 10,4 C 1,4 C
27.08.2011 04:01 10,9 C 94 % 1009 hPa 0,0 l/m 25,8 km/h (4 Bft) W-SW67.5 240 0 min 0 lux 0 min 10,0 C 2,9 C
27.08.2011 04:16 10,8 C 95 % 1009 hPa 0,0 l/m 21,0 km/h (4 Bft) SW45 230 0 min 0 lux 0 min 10,0 C 4,0 C
27.08.2011 04:31 10,8 C 95 % 1009 hPa 0,0 l/m 20,8 km/h (4 Bft) SW45 215 0 min 0 lux 0 min 10,0 C 4,1 C
27.08.2011 04:46 10,7 C 95 % 1009 hPa 0,0 l/m 18,6 km/h (3 Bft) SW22.5 235 0 min 0 lux 0 min 9,9 C 4,6 C
27.08.2011 05:01 10,6 C 95 % 1010 hPa 0,0 l/m 20,0 km/h (4 Bft) SW22.5 225 0 min 0 lux 0 min 9,8 C 4,1 C
27.08.2011 05:16 10,6 C 95 % 1010 hPa 2,7 l/m 18,1 km/h (3 Bft) SW22.5 220 0 min 0 lux 15 min 9,8 C 4,7 C
27.08.2011 05:31 10,6 C 95 % 1009 hPa 0,3 l/m 13,6 km/h (3 Bft) W-SW22.5 255 0 min 0 lux 15 min 9,8 C 6,5 C
27.08.2011 05:46 10,6 C 95 % 1009 hPa 0,0 l/m 15,4 km/h (3 Bft) SW22.5 230 0 min 0 lux 0 min 9,8 C 5,7 C
27.08.2011 06:01 10,6 C 95 % 1010 hPa 0,0 l/m 17,4 km/h (3 Bft) SW45 220 0 min 0 lux 0 min 9,8 C 4,9 C
27.08.2011 06:16 10,5 C 95 % 1010 hPa 0,3 l/m 24,1 km/h (4 Bft) S-SW67.5 205 0 min 0 lux 15 min 9,7 C 2,7 C
27.08.2011 06:31 10,1 C 94 % 1010 hPa 0,0 l/m 29,1 km/h (5 Bft) W-SW45 240 0 min 0 lux 0 min 9,2 C 1,0 C
27.08.2011 06:46 9,8 C 94 % 1010 hPa 0,0 l/m 14,8 km/h (3 Bft) W-SW45 250 0 min 169 lux 0 min 8,9 C 5,0 C
27.08.2011 07:01 9,6 C 95 % 1010 hPa 0,0 l/m 17,0 km/h (3 Bft) SW45 215 0 min 332 lux 0 min 8,8 C 3,8 C
27.08.2011 07:16 9,7 C 95 % 1010 hPa 0,0 l/m 17,8 km/h (3 Bft) SW45 230 0 min 604 lux 0 min 8,9 C 3,7 C
27.08.2011 07:30 9,7 C 96 % 1010 hPa 0,3 l/m 18,6 km/h (3 Bft) SW45 225 0 min 1,67 klux 14 min 9,1 C 3,4 C
27.08.2011 07:45 9,8 C 96 % 1010 hPa 0,0 l/m 18,8 km/h (3 Bft) SW45 235 0 min 1,99 klux 0 min 9,2 C 3,4 C
27.08.2011 08:00 9,9 C 96 % 1010 hPa 0,0 l/m 16,8 km/h (3 Bft) SW45 225 0 min 3,82 klux 0 min 9,3 C 4,3 C
27.08.2011 08:15 10,1 C 96 % 1010 hPa 0,0 l/m 16,3 km/h (3 Bft) W-SW45 245 0 min 6,54 klux 0 min 9,5 C 4,7 C
27.08.2011 08:30 10,3 C 96 % 1010 hPa 0,0 l/m 15,4 km/h (3 Bft) SW45 225 0 min 7,66 klux 0 min 9,7 C 5,3 C
27.08.2011 08:45 10,7 C 95 % 1010 hPa 0,0 l/m 16,6 km/h (3 Bft) SW45 225 0 min 9,9 klux 0 min 9,9 C 5,4 C
27.08.2011 09:00 10,9 C 95 % 1010 hPa 0,0 l/m 16,3 km/h (3 Bft) SW22.5 235 0 min 12,1 klux 0 min 10,1 C 5,7 C
27.08.2011 09:15 11,1 C 94 % 1010 hPa 0,0 l/m 21,1 km/h (4 Bft) SW45 235 0 min 11,6 klux 0 min 10,2 C 4,4 C
27.08.2011 09:30 11,2 C 93 % 1011 hPa 0,0 l/m 24,8 km/h (4 Bft) W-SW45 240 0 min 15,7 klux 0 min 10,1 C 3,5 C
27.08.2011 09:45 11,6 C 93 % 1011 hPa 0,0 l/m 22,3 km/h (4 Bft) W-SW45 240 0 min 19,6 klux 0 min 10,5 C 4,7 C
27.08.2011 10:00 11,8 C 92 % 1011 hPa 0,0 l/m 23,8 km/h (4 Bft) SW45 220 0 min 20,9 klux 0 min 10,5 C 4,6 C
27.08.2011 10:16 11,6 C 92 % 1011 hPa 0,0 l/m 23,8 km/h (4 Bft) S-SW45 210 0 min 12,3 klux 0 min 10,3 C 4,3 C
27.08.2011 10:31 11,8 C 91 % 1011 hPa 0,0 l/m 22,8 km/h (4 Bft) S-SW45 205 0 min 20,7 klux 0 min 10,4 C 4,8 C
27.08.2011 10:45 12,4 C 91 % 1012 hPa 0,0 l/m 19,4 km/h (3 Bft) W-SW45 245 0 min 34,5 klux 0 min 11,0 C 6,6 C
27.08.2011 11:00 13,2 C 88 % 1011 hPa 0,0 l/m 25,0 km/h (4 Bft) SW67.5 215 0 min 49,2 klux 0 min 11,3 C 6,2 C
27.08.2011 11:15 13,1 C 87 % 1012 hPa 0,0 l/m 25,3 km/h (4 Bft) SW45 225 0 min 35,6 klux 0 min 11,0 C 6,0 C
27.08.2011 11:30 13,9 C 86 % 1012 hPa 0,0 l/m 27,7 km/h (4 Bft) W22.5 265 0 min 47,8 klux 0 min 11,6 C 6,6 C
27.08.2011 11:46 14,0 C 85 % 1012 hPa 0,0 l/m 24,9 km/h (4 Bft) W-SW45 245 16 min 71,0 klux 0 min 11,5 C 7,3 C
27.08.2011 12:01 14,8 C 83 % 1012 hPa 0,0 l/m 23,9 km/h (4 Bft) W-SW45 250 15 min 64,4 klux 0 min 11,9 C 8,6 C
27.08.2011 12:15 14,4 C 85 % 1012 hPa 0,0 l/m 29,6 km/h (5 Bft) W22.5 265 0 min 56,3 klux 0 min 11,9 C 6,9 C
27.08.2011 12:30 15,0 C 83 % 1012 hPa 0,0 l/m 25,6 km/h (4 Bft) W-SW45 240 15 min 64,9 klux 0 min 12,1 C 8,5 C
27.08.2011 12:45 14,0 C 82 % 1012 hPa 0,0 l/m 23,6 km/h (4 Bft) W-SW22.5 255 0 min 20,6 klux 0 min 11,0 C 7,6 C
27.08.2011 13:00 13,9 C 85 % 1012 hPa 0,0 l/m 25,8 km/h (4 Bft) W45 260 0 min 36,0 klux 0 min 11,4 C 6,9 C
27.08.2011 13:16 13,6 C 84 % 1012 hPa 0,0 l/m 24,6 km/h (4 Bft) W-SW67.5 250 0 min 22,9 klux 0 min 10,9 C 6,8 C
27.08.2011 13:31 13,2 C 86 % 1012 hPa 0,0 l/m 25,5 km/h (4 Bft) W22.5 260 0 min 31,3 klux 0 min 10,9 C 6,1 C
27.08.2011 13:45 13,5 C 88 % 1012 hPa 0,0 l/m 22,1 km/h (4 Bft) W-SW45 255 14 min 86,9 klux 0 min 11,6 C 7,3 C
27.08.2011 14:00 14,8 C 88 % 1012 hPa 0,0 l/m 23,6 km/h (4 Bft) W22.5 260 15 min 115 klux 0 min 12,8 C 8,6 C
27.08.2011 14:15 15,1 C 80 % 1012 hPa 0,0 l/m 32,9 km/h (5 Bft) W22.5 260 15 min 107 klux 0 min 11,7 C 7,4 C
27.08.2011 14:30 15,0 C 81 % 1012 hPa 0,0 l/m 30,2 km/h (5 Bft) W-SW67.5 250 15 min 93,1 klux 0 min 11,8 C 7,7 C
27.08.2011 14:46 15,0 C 79 % 1012 hPa 0,0 l/m 37,4 km/h (5 Bft) W-SW45 250 16 min 84,4 klux 0 min 11,4 C 6,6 C
27.08.2011 15:01 15,2 C 77 % 1012 hPa 0,0 l/m 34,6 km/h (5 Bft) W-SW67.5 250 15 min 89,7 klux 0 min 11,2 C 7,3 C
27.08.2011 15:15 14,1 C 79 % 1013 hPa 0,0 l/m 40,1 km/h (6 Bft) W45 265 0 min 22,1 klux 0 min 10,5 C 5,0 C
27.08.2011 15:30 13,9 C 83 % 1013 hPa 0,0 l/m 26,1 km/h (4 Bft) W45 260 0 min 34,8 klux 0 min 11,1 C 6,9 C
27.08.2011 15:45 14,7 C 84 % 1013 hPa 0,0 l/m 29,5 km/h (5 Bft) W-SW22.5 250 15 min 84,9 klux 0 min 12,0 C 7,4 C
27.08.2011 16:00 14,5 C 81 % 1013 hPa 0,0 l/m 37,0 km/h (5 Bft) W22.5 270 15 min 63,0 klux 0 min 11,3 C 5,9 C
27.08.2011 16:16 14,2 C 81 % 1013 hPa 1,5 l/m 36,6 km/h (5 Bft) W45 265 0 min 37,5 klux 16 min 11,0 C 5,6 C
27.08.2011 16:30 14,3 C 81 % 1013 hPa 0,0 l/m 31,5 km/h (5 Bft) W22.5 260 0 min 28,0 klux 0 min 11,1 C 6,5 C
27.08.2011 16:45 14,9 C 79 % 1013 hPa 0,0 l/m 34,3 km/h (5 Bft) W-SW45 250 15 min 77,7 klux 0 min 11,3 C 6,9 C
27.08.2011 17:00 15,0 C 78 % 1013 hPa 0,0 l/m 34,8 km/h (5 Bft) W22.5 265 15 min 64,8 klux 0 min 11,2 C 7,0 C
27.08.2011 17:15 14,0 C 77 % 1014 hPa 0,0 l/m 32,6 km/h (5 Bft) W45 270 0 min 11,8 klux 0 min 10,0 C 5,8 C
27.08.2011 17:31 13,1 C 81 % 1014 hPa 0,0 l/m 17,6 km/h (3 Bft) W45 265 0 min 9,2 klux 0 min 9,9 C 8,0 C
27.08.2011 17:46 12,6 C 83 % 1014 hPa 0,0 l/m 13,9 km/h (3 Bft) W-SW 255 0 min 9,1 klux 0 min 9,8 C 8,7 C
27.08.2011 18:00 12,3 C 85 % 1014 hPa 0,0 l/m 19,3 km/h (3 Bft) SW22.5 215 0 min 15,1 klux 0 min 9,9 C 6,5 C
27.08.2011 18:15 12,2 C 85 % 1014 hPa 0,0 l/m 21,2 km/h (4 Bft) W45 260 0 min 11,2 klux 0 min 9,8 C 5,8 C
27.08.2011 18:30 12,0 C 86 % 1014 hPa 0,3 l/m 16,9 km/h (3 Bft) SW45 235 0 min 10,6 klux 15 min 9,7 C 6,9 C
27.08.2011 18:45 11,6 C 87 % 1014 hPa 0,0 l/m 16,8 km/h (3 Bft) W-SW45 240 0 min 11,4 klux 0 min 9,5 C 6,4 C
27.08.2011 19:01 12,0 C 87 % 1014 hPa 0,0 l/m 18,5 km/h (3 Bft) SW45 230 0 min 40,2 klux 0 min 9,9 C 6,3 C
27.08.2011 19:16 11,6 C 87 % 1015 hPa 0,0 l/m 15,5 km/h (3 Bft) SW45 235 0 min 7,17 klux 0 min 9,5 C 6,9 C
27.08.2011 19:30 11,1 C 88 % 1015 hPa 0,0 l/m 18,8 km/h (3 Bft) SW45 230 0 min 4,94 klux 0 min 9,2 C 5,1 C
27.08.2011 19:45 11,0 C 89 % 1015 hPa 0,0 l/m 18,4 km/h (3 Bft) W-SW22.5 245 0 min 7,25 klux 0 min 9,3 C 5,1 C
27.08.2011 20:00 10,8 C 89 % 1015 hPa 0,0 l/m 18,1 km/h (3 Bft) SW45 225 0 min 4,48 klux 0 min 9,1 C 4,9 C
27.08.2011 20:15 10,7 C 90 % 1015 hPa 0,0 l/m 14,5 km/h (3 Bft) SW22.5 235 0 min 1,35 klux 0 min 9,1 C 6,2 C
27.08.2011 20:31 10,5 C 90 % 1015 hPa 0,0 l/m 11,0 km/h (2 Bft) W-SW22.5 245 0 min 1,02 klux 0 min 8,9 C 7,6 C
27.08.2011 20:46 10,2 C 90 % 1015 hPa 0,0 l/m 19,3 km/h (3 Bft) SW22.5 225 0 min 356 lux 0 min 8,6 C 3,8 C
27.08.2011 21:00 9,8 C 90 % 1015 hPa 0,0 l/m 17,1 km/h (3 Bft) SW45 230 0 min 91 lux 0 min 8,2 C 4,1 C
27.08.2011 21:15 9,5 C 91 % 1016 hPa 0,0 l/m 15,3 km/h (3 Bft) SW22.5 220 0 min 7 lux 0 min 8,1 C 4,4 C
27.08.2011 21:30 8,9 C 91 % 1016 hPa 0,0 l/m 8,6 km/h (2 Bft) SW22.5 235 0 min 0 lux 0 min 7,5 C 7,3 C
27.08.2011 21:45 8,6 C 92 % 1016 hPa 0,0 l/m 12,3 km/h (3 Bft) W-SW22.5 245 0 min 0 lux 0 min 7,4 C 4,7 C
27.08.2011 22:01 8,7 C 93 % 1016 hPa 0,0 l/m 9,6 km/h (2 Bft) W-SW45 245 0 min 0 lux 0 min 7,6 C 6,4 C
27.08.2011 22:16 8,9 C 94 % 1016 hPa 0,0 l/m 12,5 km/h (3 Bft) W-SW45 245 0 min 0 lux 0 min 8,0 C 5,0 C
27.08.2011 22:30 9,2 C 94 % 1016 hPa 0,0 l/m 12,6 km/h (3 Bft) W-SW22.5 250 0 min 0 lux 0 min 8,3 C 5,3 C
27.08.2011 22:45 9,6 C 94 % 1016 hPa 0,0 l/m 15,7 km/h (3 Bft) W-SW 250 0 min 0 lux 0 min 8,7 C 4,4 C
27.08.2011 23:00 9,8 C 94 % 1016 hPa 0,0 l/m 21,5 km/h (4 Bft) SW67.5 235 0 min 0 lux 0 min 8,9 C 2,6 C
27.08.2011 23:15 10,0 C 94 % 1016 hPa 0,0 l/m 20,4 km/h (4 Bft) SW45 215 0 min 0 lux 0 min 9,1 C 3,2 C
27.08.2011 23:31 10,0 C 94 % 1016 hPa 0,0 l/m 20,1 km/h (4 Bft) SW45 215 0 min 0 lux 0 min 9,1 C 3,3 C
27.08.2011 23:46 9,8 C 94 % 1016 hPa 0,0 l/m 17,0 km/h (3 Bft) SW45 215 0 min 0 lux 0 min 8,9 C 4,1 C
_ Min-Zeit 21:45 15:01 00:00 - 21:30 - - - - - 21:45 06:31
Minimum _ 8,6 C 77 % 1008 hPa - 8,6 km/h (2 Bft) - - - - - 7,4 C 1,0 C
_ Max-Zeit 15:01 07:30 21:15 05:16 15:15 - - 11:46 14:00 16:16 14:00 17:46
Maximum _ 15,2 C 96 % 1016 hPa 2,7 l/m 40,1 km/h
W (6 Bft)
- - 16 min 115 klux 16 min 12,8 C 8,7 C
Durchschnitt _ 11,8 C 90 % 1012 hPa #6,9 l/m 21,9 km/h (4 Bft) SW - #3:16 h 18,9 klux #1:45 h 10,2 C 5,5 C